Time;durP1;ratioP1;P1;durP2;ratioP2;P2;SDS_P1;SDS_P2;PMS_P1;PMS_P2;Temp;Humidity;BMP_temperature;BMP_pressure;BME280_temperature;BME280_humidity;BME280_pressure;Samples;Min_cycle;Max_cycle;Signal;HPM_P1;HPM_P2
2022/04/23 00:00:39;;;;;;;19.90;13.85;;;;;;;11.22;63.99;98679.66;7631975;32;37129;-73
2022/04/23 00:04:55;;;;;;;19.95;13.88;;;;;;;10.79;66.01;98679.91;7630824;32;232914;-76
2022/04/23 00:09:11;;;;;;;21.00;13.20;;;;;;;10.82;66.12;98675.78;7632068;32;40755;-76
2022/04/23 00:13:28;;;;;;;20.52;12.60;;;;;;;10.90;65.93;98678.62;7631931;32;38811;-77
2022/04/23 00:17:47;;;;;;;20.98;12.20;;;;;;;10.97;66.16;98664.59;7635935;32;37193;-76
2022/04/23 00:22:03;;;;;;;18.05;11.95;;;;;;;11.06;64.80;98670.97;7657993;32;39314;-77
2022/04/23 00:26:19;;;;;;;17.58;11.73;;;;;;;10.72;66.55;98671.31;7637121;32;40008;-77
2022/04/23 00:30:36;;;;;;;17.00;12.02;;;;;;;10.98;65.48;98674.37;7638158;32;38040;-77
2022/04/23 00:34:52;;;;;;;15.80;11.38;;;;;;;11.04;65.38;98678.66;7658032;32;37219;-77
2022/04/23 00:39:08;;;;;;;16.77;12.13;;;;;;;11.02;65.33;98685.50;7657984;32;39313;-76
2022/04/23 00:43:29;;;;;;;17.70;11.48;;;;;;;11.07;65.33;98678.06;7657768;32;39893;-77
2022/04/23 00:47:45;;;;;;;18.33;12.15;;;;;;;10.99;65.38;98686.12;7657777;32;38739;-77
2022/04/23 00:52:02;;;;;;;15.85;10.98;;;;;;;10.92;65.98;98682.97;7657877;32;36992;-76
2022/04/23 00:56:18;;;;;;;18.58;11.98;;;;;;;11.05;65.87;98674.78;7637306;32;39335;-77
2022/04/23 01:00:34;;;;;;;22.20;13.70;;;;;;;11.01;66.13;98684.69;7631328;32;40966;-77
2022/04/23 01:04:53;;;;;;;19.25;12.30;;;;;;;11.23;65.23;98685.94;7631042;32;37780;-77
2022/04/23 01:09:10;;;;;;;17.23;12.77;;;;;;;11.32;65.32;98684.09;7631048;32;37393;-76
2022/04/23 01:13:26;;;;;;;18.77;12.05;;;;;;;11.35;64.28;98688.13;7631433;32;39874;-77
2022/04/23 01:17:43;;;;;;;18.77;12.18;;;;;;;11.22;64.75;98690.56;7631111;32;39796;-77
2022/04/23 01:21:59;;;;;;;19.25;13.00;;;;;;;11.45;64.04;98687.94;7637612;32;38743;-76
2022/04/23 01:26:29;;;;;;;21.00;12.65;;;;;;;11.40;64.32;98696.22;7634793;32;37193;-76
2022/04/23 01:30:49;;;;;;;18.52;12.35;;;;;;;11.59;64.01;98694.19;7630865;32;39412;-76
2022/04/23 01:35:05;;;;;;;19.17;13.10;;;;;;;11.24;65.18;98693.78;7630776;32;40031;-77
2022/04/23 01:39:21;;;;;;;18.58;12.60;;;;;;;11.06;66.07;98691.97;7630534;32;38770;-77
2022/04/23 01:43:38;;;;;;;19.92;13.05;;;;;;;11.23;65.21;98697.66;7639908;32;37271;-77
2022/04/23 01:47:54;;;;;;;18.48;13.38;;;;;;;11.12;65.77;98692.69;7656663;32;40071;-77
2022/04/23 01:52:10;;;;;;;19.05;13.05;;;;;;;10.77;66.23;98695.78;7652754;32;39935;-77
2022/04/23 01:56:26;;;;;;;19.10;12.73;;;;;;;11.06;65.45;98692.78;7649319;32;37977;-77
2022/04/23 02:00:44;;;;;;;20.83;12.73;;;;;;;10.78;66.84;98697.41;7633437;32;36985;-77
2022/04/23 02:05:01;;;;;;;19.00;13.38;;;;;;;11.07;65.77;98693.59;7655945;32;40494;-76
2022/04/23 02:09:17;;;;;;;19.45;12.90;;;;;;;10.83;66.06;98694.59;7656073;32;40752;-76
2022/04/23 02:13:34;;;;;;;20.92;13.07;;;;;;;11.04;65.60;98694.22;7655898;32;38008;-76
2022/04/23 02:17:50;;;;;;;16.95;11.80;;;;;;;11.17;65.25;98693.38;7655991;32;38330;-76
2022/04/23 02:22:06;;;;;;;22.70;13.23;;;;;;;11.18;65.51;98702.41;7635361;32;39147;-76
2022/04/23 02:26:23;;;;;;;20.70;12.88;;;;;;;11.18;65.57;98694.22;7655250;32;40650;-77
2022/04/23 02:30:39;;;;;;;19.17;13.52;;;;;;;11.19;65.64;98688.47;7659285;32;38694;-77
2022/04/23 02:34:55;;;;;;;18.40;13.10;;;;;;;11.05;65.94;98685.69;7659358;32;37380;-76
2022/04/23 02:39:11;;;;;;;19.65;12.63;;;;;;;10.95;66.37;98690.53;7659382;32;40101;-76
2022/04/23 02:43:27;;;;;;;20.70;12.18;;;;;;;11.22;65.68;98696.03;7659178;32;40727;-76
2022/04/23 02:47:45;;;;;;;21.33;13.38;;;;;;;11.49;64.66;98694.41;7659168;32;37970;-77
2022/04/23 02:52:01;;;;;;;20.02;12.98;;;;;;;11.45;64.73;98698.84;7637085;32;38838;-76
2022/04/23 02:56:17;;;;;;;19.77;13.18;;;;;;;11.36;65.23;98697.94;7640969;32;39465;-76
2022/04/23 03:00:34;;;;;;;18.40;13.05;;;;;;;11.28;65.87;98700.28;7656440;32;40830;-76
2022/04/23 03:04:50;;;;;;;19.12;13.45;;;;;;;11.25;65.76;98694.62;7606065;32;37849;-76
2022/04/23 03:09:06;;;;;;;20.55;12.98;;;;;;;11.33;65.42;98701.28;7606728;32;37188;-76
2022/04/23 03:13:23;;;;;;;18.35;12.95;;;;;;;11.26;65.58;98701.69;7606571;32;38033;-77
2022/04/23 03:17:40;;;;;;;24.10;15.13;;;;;;;11.23;66.05;98711.28;7606499;32;39759;-76
2022/04/23 03:21:57;;;;;;;23.02;14.48;;;;;;;11.50;65.07;98712.37;7640540;32;39075;-76
2022/04/23 03:26:13;;;;;;;21.98;15.02;;;;;;;11.33;65.46;98717.66;7636732;32;37273;-76
2022/04/23 03:30:30;;;;;;;20.95;13.80;;;;;;;11.17;66.22;98719.87;7631438;32;39399;-76
2022/04/23 03:34:46;;;;;;;22.45;14.07;;;;;;;11.05;66.43;98712.16;7632367;32;39870;-76
2022/04/23 03:39:02;;;;;;;20.25;13.85;;;;;;;11.31;65.58;98728.06;7632373;32;39113;-76
2022/04/23 03:43:18;;;;;;;20.70;12.90;;;;;;;11.05;66.32;98731.25;7632394;32;37276;-76
2022/04/23 03:47:34;;;;;;;19.77;12.75;;;;;;;11.11;66.40;98730.06;7632727;32;40019;-76
2022/04/23 03:51:51;;;;;;;22.60;14.95;;;;;;;10.87;67.32;98732.97;7655076;32;39908;-76
2022/04/23 03:56:08;;;;;;;21.15;14.23;;;;;;;11.22;66.08;98739.66;7636356;32;38054;-76
2022/04/23 04:00:25;;;;;;;20.73;13.90;;;;;;;10.94;67.06;98735.31;7632967;32;37597;-76
2022/04/23 04:04:42;;;;;;;21.35;14.15;;;;;;;11.10;66.70;98742.09;7657459;32;39283;-76
2022/04/23 04:08:58;;;;;;;20.80;14.13;;;;;;;11.40;65.59;98745.34;7658440;32;39811;-76
2022/04/23 04:13:14;;;;;;;21.08;14.30;;;;;;;10.84;67.60;98739.81;7642739;32;37694;-76
2022/04/23 04:17:30;;;;;;;20.08;13.88;;;;;;;11.07;66.85;98743.50;7632018;32;36985;-76
2022/04/23 04:21:47;;;;;;;21.73;14.40;;;;;;;11.21;66.12;98738.06;7631859;32;39957;-76
2022/04/23 04:26:09;;;;;;;20.00;14.32;;;;;;;11.11;66.38;98743.72;7632413;32;39923;-76
2022/04/23 04:30:25;;;;;;;21.05;14.32;;;;;;;11.31;65.79;98742.50;7631610;32;38006;-76
2022/04/23 04:34:41;;;;;;;21.83;13.77;;;;;;;11.27;65.98;98736.03;7631717;32;37850;-76
2022/04/23 04:38:57;;;;;;;21.40;13.77;;;;;;;11.13;66.49;98729.78;7631646;32;39215;-76
2022/04/23 04:43:13;;;;;;;20.10;13.25;;;;;;;11.14;66.72;98736.84;7631186;32;40065;-77
2022/04/23 04:47:29;;;;;;;20.17;13.10;;;;;;;11.25;66.30;98732.81;7640627;32;38752;-77
2022/04/23 04:51:45;;;;;;;19.77;13.13;;;;;;;11.33;66.27;98742.22;7631506;32;37310;-77
2022/04/23 04:56:01;;;;;;;21.92;14.25;;;;;;;11.46;65.90;98735.94;7631539;32;40126;-77
2022/04/23 05:00:18;;;;;;;23.80;14.93;;;;;;;11.37;66.06;98740.50;7630994;32;40053;-76
2022/04/23 05:04:34;;;;;;;22.30;14.77;;;;;;;11.62;65.70;98739.19;7630824;32;38041;-76
2022/04/23 05:08:50;;;;;;;22.20;14.90;;;;;;;11.45;66.54;98737.06;7642842;32;38006;-77
2022/04/23 05:13:06;;;;;;;23.60;14.40;;;;;;;11.72;65.65;98746.34;7631138;32;40027;-77
2022/04/23 05:17:22;;;;;;;22.48;15.25;;;;;;;11.64;65.81;98740.50;7631786;32;40603;-76
2022/04/23 05:21:38;;;;;;;22.40;15.70;;;;;;;11.39;66.13;98750.00;7644954;32;37753;-76
2022/04/23 05:25:55;;;;;;;24.00;15.38;;;;;;;10.98;68.02;98749.94;7642262;32;37618;-78
2022/04/23 05:30:11;;;;;;;19.92;15.15;;;;;;;11.30;67.22;98740.06;7626420;32;39289;-76
2022/04/23 05:34:28;;;;;;;24.48;15.30;;;;;;;11.34;66.79;98741.91;7639890;32;40872;-76
2022/04/23 05:38:44;;;;;;;21.73;13.93;;;;;;;11.19;67.98;98734.00;7630506;32;37806;-77
2022/04/23 05:43:00;;;;;;;23.65;14.13;;;;;;;11.79;66.09;98738.56;7648171;32;37904;-77
2022/04/23 05:47:16;;;;;;;20.75;13.65;;;;;;;11.55;66.26;98741.50;7632769;32;40081;-77
2022/04/23 05:51:32;;;;;;;23.10;13.68;;;;;;;11.58;66.63;98749.91;7631238;32;39773;-76
2022/04/23 05:55:49;;;;;;;20.37;14.13;;;;;;;11.37;67.14;98765.06;7638075;32;37715;-77
2022/04/23 06:00:08;;;;;;;20.73;13.65;;;;;;;11.23;67.84;98763.12;7658640;32;37329;-76
2022/04/23 06:04:25;;;;;;;22.05;14.18;;;;;;;11.34;67.49;98762.94;7645566;32;38275;-76
2022/04/23 06:08:42;;;;;;;21.10;13.60;;;;;;;11.48;67.42;98763.75;7644038;32;40014;-76
2022/04/23 06:12:58;;;;;;;19.12;13.57;;;;;;;11.47;67.43;98762.16;7651911;32;38846;-76
2022/04/23 06:17:14;;;;;;;20.62;12.85;;;;;;;11.95;66.54;98771.84;7634302;32;37183;-77
2022/04/23 06:21:30;;;;;;;20.95;13.02;;;;;;;11.79;66.93;98784.97;7644409;32;39184;-78
2022/04/23 06:59:46;;;;;;;20.40;13.40;;;;;;;12.80;65.63;98845.13;7634043;32;20102;-79
2022/04/23 07:04:10;;;;;;;19.08;13.25;;;;;;;13.05;64.50;98846.44;7631617;32;37987;-78
2022/04/23 07:08:33;;;;;;;19.17;12.73;;;;;;;12.98;64.35;98838.66;7632463;32;39939;-79
2022/04/23 07:13:14;;;;;;;19.08;12.20;;;;;;;13.04;65.19;98842.06;7631739;32;40673;-79
2022/04/23 07:17:33;;;;;;;18.55;12.82;;;;;;;12.89;64.55;98848.75;7632931;32;37931;-80
2022/04/23 07:21:50;;;;;;;18.73;12.85;;;;;;;13.33;64.64;98855.34;7632703;32;37455;-80
2022/04/23 07:26:11;;;;;;;17.17;11.63;;;;;;;13.10;64.04;98854.53;7632759;32;38785;-78
2022/04/23 07:30:30;;;;;;;16.83;10.93;;;;;;;12.85;66.46;98864.16;7632553;32;41476;-79
2022/04/23 07:50:51;;;;;;;15.52;11.27;;;;;;;13.09;63.15;98875.63;7620082;32;39773;-79
2022/04/23 07:55:09;;;;;;;15.43;10.25;;;;;;;13.46;62.16;98881.03;7632260;32;38038;-80
2022/04/23 10:01:07;;;;;;;11.12;6.87;;;;;;;15.00;52.60;98946.09;7709380;32;20101;-75
2022/04/23 10:05:24;;;;;;;9.95;6.55;;;;;;;15.07;52.49;98944.78;7695587;32;37892;-74
2022/04/23 10:09:42;;;;;;;11.82;7.20;;;;;;;15.33;51.74;98947.53;7709309;32;37661;-75
2022/04/23 10:14:02;;;;;;;11.10;7.15;;;;;;;15.02;51.42;98957.56;7709348;32;39089;-75
2022/04/23 10:18:18;;;;;;;10.43;7.15;;;;;;;14.78;54.62;98962.66;7709084;32;40748;-74
2022/04/23 10:23:09;;;;;;;11.07;7.43;;;;;;;14.84;53.27;98964.16;7708913;32;38894;-74
2022/04/23 10:27:26;;;;;;;11.80;7.43;;;;;;;15.70;52.29;98968.03;7708797;32;35958;-74
2022/04/23 10:31:42;;;;;;;11.93;7.18;;;;;;;15.34;51.73;98963.69;7708974;32;39839;-75
2022/04/23 10:36:08;;;;;;;10.65;7.35;;;;;;;15.00;52.67;98968.06;7708411;32;40775;-75
2022/04/23 10:40:24;;;;;;;11.43;6.78;;;;;;;15.12;51.41;98963.84;7709240;32;38884;-76
2022/04/23 10:44:45;;;;;;;11.65;7.25;;;;;;;15.42;52.24;98961.25;7712222;32;37144;-74
2022/04/23 10:49:14;;;;;;;11.52;7.20;;;;;;;15.99;53.41;98951.97;7699035;32;39315;-74
2022/04/23 10:53:42;;;;;;;10.85;6.82;;;;;;;16.39;51.21;98946.97;7712081;32;39868;-76
2022/04/23 10:58:19;;;;;;;8.95;6.28;;;;;;;16.97;50.74;98949.25;7712092;32;38057;-74
2022/04/23 11:02:37;;;;;;;11.07;6.80;;;;;;;16.79;48.12;98952.09;7712035;32;37005;-76
2022/04/23 11:16:18;;;;;;;9.93;6.60;;;;;;;16.77;46.50;98954.38;7700254;32;38716;-77
2022/04/23 11:20:38;;;;;;;9.20;6.18;;;;;;;16.42;47.74;98957.31;7698178;32;37115;-76
2022/04/23 11:24:55;;;;;;;9.80;6.47;;;;;;;16.75;46.89;98948.41;7712026;32;39142;-76
2022/04/23 11:29:11;;;;;;;10.15;5.82;;;;;;;17.03;45.63;98942.41;7711826;32;40748;-76
2022/04/23 11:33:28;;;;;;;9.15;6.22;;;;;;;17.70;43.75;98947.97;7711847;32;37882;-76
2022/04/23 11:37:44;;;;;;;11.18;6.85;;;;;;;18.20;43.81;98935.94;7698173;32;37749;-77
2022/04/23 11:42:00;;;;;;;10.43;6.10;;;;;;;18.37;41.84;98937.66;7711887;32;39050;-78
2022/04/23 11:46:16;;;;;;;9.50;6.20;;;;;;;18.53;41.07;98937.78;7697938;32;40680;-76
2022/04/23 11:50:32;;;;;;;10.88;6.35;;;;;;;18.69;40.42;98935.13;7711720;32;38805;-76
2022/04/23 11:54:48;;;;;;;10.00;6.53;;;;;;;18.68;42.37;98939.84;7710549;32;36841;-76
2022/04/23 11:59:09;;;;;;;11.15;6.35;;;;;;;18.01;41.66;98945.56;7711325;32;39437;-76
2022/04/23 12:03:26;;;;;;;8.18;5.78;;;;;;;17.52;42.94;98945.38;7711479;32;41008;-76
2022/04/23 12:07:42;;;;;;;9.05;5.72;;;;;;;17.59;42.63;98950.34;7697942;32;37610;-76
2022/04/23 12:11:59;;;;;;;12.02;7.05;;;;;;;17.50;42.91;98942.16;7711612;32;37553;-77
2022/04/23 12:16:42;;;;;;;10.93;6.22;;;;;;;17.37;42.03;98948.78;7697930;32;40093;-76
2022/04/23 12:21:08;;;;;;;9.90;5.70;;;;;;;17.71;41.59;98946.81;7711418;32;39921;-76
2022/04/23 12:25:25;;;;;;;10.10;5.55;;;;;;;17.62;42.77;98938.66;7711246;32;37580;-76
2022/04/23 12:43:52;;;;;;;8.07;5.15;;;;;;;17.58;42.55;98926.69;7711047;32;38745;-76
2022/04/23 12:48:08;;;;;;;12.25;5.80;;;;;;;17.30;42.27;98921.78;7711313;32;35222;-77
2022/04/23 12:52:27;;;;;;;8.43;4.68;;;;;;;17.30;41.46;98923.69;7711027;32;39382;-77
2022/04/23 12:56:43;;;;;;;10.82;5.15;;;;;;;17.67;41.74;98921.91;7710815;32;40810;-77
2022/04/23 13:01:00;;;;;;;7.18;4.50;;;;;;;18.20;41.94;98919.37;7710526;32;38500;-77
2022/04/23 13:05:16;;;;;;;7.47;4.68;;;;;;;19.18;39.25;98917.66;7710303;32;37803;-78
2022/04/23 13:09:33;;;;;;;8.68;4.22;;;;;;;18.39;39.35;98927.09;7710896;32;40259;-78
2022/04/23 13:13:49;;;;;;;8.55;3.85;;;;;;;19.16;36.72;98931.81;7710596;32;40851;-77
2022/04/23 13:18:06;;;;;;;8.30;4.78;;;;;;;18.73;38.33;98920.28;7710598;32;38735;-77
2022/04/23 13:22:22;;;;;;;13.13;4.62;;;;;;;18.53;37.23;98923.97;7710454;32;37856;-77
2022/04/23 13:26:38;;;;;;;11.95;4.47;;;;;;;18.72;38.92;98917.88;7710062;32;40139;-77
2022/04/23 13:30:54;;;;;;;8.50;4.60;;;;;;;18.96;38.19;98914.28;7709964;32;40755;-78
2022/04/23 13:35:12;;;;;;;12.05;4.20;;;;;;;18.77;37.13;98915.66;7709702;32;38610;-77
2022/04/23 13:39:29;;;;;;;6.32;4.28;;;;;;;18.43;39.69;98919.72;7709724;32;37104;-78
2022/04/23 13:43:46;;;;;;;14.10;8.55;;;;;;;18.12;37.34;98910.06;7709683;32;39281;-78
2022/04/23 13:48:04;;;;;;;8.70;4.10;;;;;;;18.68;37.09;98909.47;7709560;32;39738;-77
2022/04/23 13:52:20;;;;;;;6.43;3.50;;;;;;;18.55;38.77;98908.66;7695985;32;38991;-77
2022/04/23 13:56:36;;;;;;;8.57;4.30;;;;;;;18.39;37.92;98921.56;7695836;32;37171;-77
2022/04/23 14:00:52;;;;;;;5.05;3.67;;;;;;;17.50;39.53;98925.63;7709183;32;39617;-76
2022/04/23 14:14:18;;;;;;;8.93;4.20;;;;;;;18.53;40.11;98915.69;7708883;32;36886;-76
2022/04/23 14:18:34;;;;;;;6.60;4.05;;;;;;;18.72;38.95;98913.13;7712583;32;39866;-76
2022/04/23 14:22:50;;;;;;;9.07;4.20;;;;;;;18.73;37.94;98917.53;7712841;32;39691;-76
2022/04/23 14:27:06;;;;;;;9.25;3.97;;;;;;;18.91;38.01;98912.56;7712710;32;37626;-73
2022/04/23 14:31:22;;;;;;;10.95;4.25;;;;;;;18.65;38.19;98921.19;7712779;32;36866;-70
2022/04/23 14:35:38;;;;;;;9.45;3.97;;;;;;;18.62;40.96;98924.66;7712516;32;40165;-76
2022/04/23 14:39:54;;;;;;;8.85;4.07;;;;;;;18.50;38.85;98921.91;7712646;32;40711;-77
2022/04/23 14:44:10;;;;;;;5.93;4.15;;;;;;;18.37;38.89;98921.91;7712512;32;37836;-76
2022/04/23 14:48:27;;;;;;;11.63;4.22;;;;;;;18.29;39.71;98922.03;7712542;32;37010;-76
2022/04/23 14:57:20;;;;;;;6.78;4.28;;;;;;;17.75;43.07;98945.81;7712424;32;39944;-76
2022/04/23 15:01:37;;;;;;;7.70;4.95;;;;;;;17.92;42.51;98941.28;7712062;32;37863;-76
2022/04/23 15:05:55;;;;;;;9.18;5.03;;;;;;;17.96;42.36;98951.28;7712187;32;37833;-76
2022/04/23 15:10:11;;;;;;;12.40;5.70;;;;;;;17.91;42.80;98950.72;7712311;32;39277;-76
2022/04/23 15:14:28;;;;;;;10.55;5.85;;;;;;;17.56;43.99;98954.59;7711964;32;40199;-76
2022/04/23 15:18:44;;;;;;;11.32;6.35;;;;;;;17.73;43.92;98955.56;7711946;32;38807;-75
2022/04/23 15:23:00;;;;;;;10.68;6.35;;;;;;;17.25;47.10;98947.56;7712055;32;37159;-76
2022/04/23 15:27:16;;;;;;;16.00;8.57;;;;;;;17.26;46.39;98938.19;7711690;32;39624;-76
2022/04/23 15:31:40;;;;;;;13.10;8.70;;;;;;;17.45;45.55;98934.09;7711900;32;40884;-75
2022/04/23 15:35:59;;;;;;;8.55;5.78;;;;;;;17.33;45.71;98939.56;7711836;32;39527;-75
2022/04/23 15:40:15;;;;;;;14.05;6.25;;;;;;;17.32;45.89;98940.72;7711812;32;36154;-76
2022/04/23 15:44:32;;;;;;;11.05;7.00;;;;;;;16.79;47.44;98941.06;7711648;32;39652;-75
2022/04/23 15:48:49;;;;;;;10.80;5.75;;;;;;;17.02;46.43;98946.28;7711886;32;40597;-76
2022/04/23 15:53:05;;;;;;;11.48;5.70;;;;;;;16.82;47.07;98945.12;7711568;32;38776;-76
2022/04/23 15:57:21;;;;;;;9.20;5.82;;;;;;;16.84;47.15;98935.41;7711553;32;37922;-76
2022/04/23 16:01:39;;;;;;;9.35;6.05;;;;;;;16.67;47.63;98938.25;7711255;32;40078;-75
2022/04/23 16:05:58;;;;;;;8.32;5.50;;;;;;;16.79;47.18;98934.78;7697365;32;39877;-75
2022/04/23 16:10:14;;;;;;;12.07;5.70;;;;;;;16.61;47.59;98936.81;7711282;32;36826;-76
2022/04/23 16:14:30;;;;;;;8.57;5.28;;;;;;;16.79;47.16;98930.06;7711447;32;36773;-77
2022/04/23 16:19:06;;;;;;;12.93;6.45;;;;;;;16.57;47.98;98935.88;7699559;32;40457;-77
2022/04/23 16:23:22;;;;;;;12.60;6.95;;;;;;;16.55;47.80;98938.16;7711104;32;39610;-76
2022/04/23 16:27:38;;;;;;;11.80;7.57;;;;;;;16.44;48.27;98946.00;7710960;32;37559;-76
2022/04/23 16:31:54;;;;;;;11.82;6.85;;;;;;;16.64;47.15;98939.72;7711108;32;36900;-76
2022/04/23 16:49:49;;;;;;;11.02;7.15;;;;;;;16.48;50.26;98947.72;7710800;32;37748;-76
2022/04/23 16:54:05;;;;;;;12.13;7.28;;;;;;;16.47;50.58;98946.12;7710767;32;40074;-75
2022/04/23 16:58:21;;;;;;;11.10;7.15;;;;;;;16.23;48.88;98948.66;7710530;32;40007;-76
2022/04/23 17:02:37;;;;;;;13.07;8.10;;;;;;;16.41;49.83;98949.41;7710617;32;38627;-75
2022/04/23 17:06:55;;;;;;;12.35;7.12;;;;;;;15.64;50.87;98955.56;7710646;32;37157;-74
2022/04/23 17:11:11;;;;;;;13.07;7.47;;;;;;;16.30;49.50;98952.50;7710806;32;39930;-76
2022/04/23 17:15:27;;;;;;;16.67;8.43;;;;;;;16.36;49.49;98950.38;7710346;32;41026;-76
2022/04/23 17:19:43;;;;;;;12.05;7.80;;;;;;;16.45;49.27;98950.34;7710519;32;38644;-75
2022/04/23 17:23:59;;;;;;;14.40;8.90;;;;;;;16.51;48.92;98941.56;7710573;32;37627;-75
2022/04/23 17:28:15;;;;;;;11.20;8.07;;;;;;;16.33;49.50;98940.03;7696734;32;39542;-77
2022/04/23 17:32:31;;;;;;;16.27;10.95;;;;;;;16.42;49.44;98938.06;7710329;32;39912;-76
2022/04/23 17:36:47;;;;;;;14.23;9.27;;;;;;;16.36;49.56;98931.12;7710120;32;38705;-76
2022/04/23 17:41:03;;;;;;;14.25;9.10;;;;;;;16.42;49.49;98935.31;7710051;32;37111;-76
2022/04/23 17:45:20;;;;;;;12.88;8.70;;;;;;;16.19;50.09;98929.25;7709977;32;39289;-76
2022/04/23 17:49:40;;;;;;;14.40;8.60;;;;;;;16.39;49.24;98937.91;7709853;32;39095;-77
2022/04/23 17:53:56;;;;;;;13.70;8.68;;;;;;;16.29;50.60;98936.34;7712921;32;38640;-77
2022/04/23 17:58:12;;;;;;;13.77;8.35;;;;;;;15.97;52.57;98933.09;7713001;32;36977;-76
2022/04/23 18:11:39;;;;;;;12.95;7.65;;;;;;;15.72;53.96;98954.75;7713061;32;38801;-76
2022/04/23 18:15:56;;;;;;;11.63;7.53;;;;;;;15.72;53.33;98954.75;7712590;32;37073;-77
2022/04/23 18:20:13;;;;;;;15.27;7.35;;;;;;;15.55;54.01;98955.59;7712852;32;39147;-77
2022/04/23 18:24:30;;;;;;;12.07;7.82;;;;;;;15.92;53.06;98961.53;7712662;32;40049;-77
2022/04/23 18:28:46;;;;;;;12.13;7.95;;;;;;;16.16;52.11;98962.94;7709502;32;37699;-76
2022/04/23 18:33:02;;;;;;;11.20;7.72;;;;;;;16.10;52.14;98956.78;7710428;32;36809;-76
2022/04/23 18:37:18;;;;;;;15.32;7.55;;;;;;;16.01;52.58;98961.53;7712059;32;39225;-76
2022/04/23 18:41:34;;;;;;;14.65;8.20;;;;;;;15.52;54.09;98955.44;7711947;32;40511;-76
2022/04/23 18:45:50;;;;;;;11.85;7.60;;;;;;;15.65;53.42;98959.16;7711835;32;38488;-76
2022/04/23 18:50:08;;;;;;;11.77;7.45;;;;;;;15.43;53.77;98968.38;7711564;32;36800;-76
2022/04/23 18:54:24;;;;;;;14.20;8.35;;;;;;;15.49;53.19;98980.84;7712152;32;40505;-77
2022/04/23 18:58:40;;;;;;;14.75;8.60;;;;;;;15.18;53.80;98974.34;7711442;32;39729;-76
2022/04/23 19:02:56;;;;;;;13.55;8.25;;;;;;;15.07;54.12;98966.75;7736134;32;37621;-76
2022/04/23 19:07:12;;;;;;;11.68;7.90;;;;;;;14.96;54.32;98969.81;7738389;32;37339;-75
2022/04/23 19:11:28;;;;;;;16.30;9.23;;;;;;;15.02;54.17;98962.22;7738378;32;39673;-76
2022/04/23 19:15:44;;;;;;;14.63;9.88;;;;;;;15.12;53.80;98963.84;7738267;32;40103;-75
2022/04/23 19:20:02;;;;;;;14.98;9.25;;;;;;;15.05;54.21;98974.50;7738233;32;38652;-76
2022/04/23 19:28:54;;;;;;;15.90;10.07;;;;;;;15.18;53.80;98976.31;7738140;32;39788;-76
2022/04/23 19:33:11;;;;;;;15.93;10.55;;;;;;;15.40;53.50;98976.12;7738239;32;39628;-75
2022/04/23 19:37:27;;;;;;;16.73;10.80;;;;;;;15.14;54.35;98976.12;7732666;32;38175;-76
2022/04/23 19:41:43;;;;;;;16.23;10.30;;;;;;;15.13;54.79;98987.44;7710766;32;37429;-75
2022/04/23 19:45:59;;;;;;;13.68;9.85;;;;;;;15.14;54.59;98978.88;7711527;32;40386;-75
2022/04/23 19:50:15;;;;;;;16.20;10.55;;;;;;;14.99;54.78;98976.59;7710806;32;40050;-76
2022/04/23 19:54:31;;;;;;;14.63;10.23;;;;;;;14.92;55.03;98979.00;7709452;32;38046;-75
2022/04/23 19:58:47;;;;;;;16.80;10.38;;;;;;;14.99;54.38;98982.91;7710448;32;36740;-76
2022/04/23 20:03:03;;;;;;;14.80;10.05;;;;;;;14.96;54.59;98983.53;7710421;32;39272;-75
2022/04/23 20:07:21;;;;;;;17.60;10.95;;;;;;;14.81;55.32;98997.72;7709365;32;39793;-76
2022/04/23 20:11:37;;;;;;;17.70;10.38;;;;;;;14.84;55.40;98999.81;7710311;32;38693;-76
2022/04/23 20:15:53;;;;;;;18.75;10.85;;;;;;;14.86;55.47;99000.31;7709751;32;37220;-76
2022/04/23 20:20:13;;;;;;;17.42;11.60;;;;;;;14.83;55.38;98989.97;7710009;32;40213;-76
2022/04/23 20:24:51;;;;;;;18.30;11.98;;;;;;;14.61;56.12;99010.91;7710426;32;40888;-78
2022/04/23 20:29:09;;;;;;;16.52;11.48;;;;;;;14.69;55.73;99005.75;7710167;32;38493;-75
2022/04/23 20:33:25;;;;;;;19.40;12.45;;;;;;;14.53;56.40;99002.59;7704291;32;37217;-76
2022/04/23 20:42:16;;;;;;;19.10;12.55;;;;;;;14.54;56.87;99010.53;7683485;32;39665;-76
2022/04/23 20:46:32;;;;;;;19.20;13.00;;;;;;;14.77;56.19;98996.75;7683639;32;37625;-76
2022/04/23 20:50:48;;;;;;;17.60;12.63;;;;;;;14.92;55.77;98996.28;7683527;32;38026;-76
2022/04/23 20:55:05;;;;;;;24.77;14.50;;;;;;;14.95;55.76;99008.53;7683608;32;40032;-76
2022/04/23 20:59:22;;;;;;;19.12;12.30;;;;;;;14.91;55.91;98994.66;7688552;32;40748;-74
2022/04/23 21:03:39;;;;;;;21.40;14.02;;;;;;;14.23;57.19;98989.41;7707724;32;38026;-76
2022/04/23 21:07:56;;;;;;;22.85;14.55;;;;;;;14.36;56.79;98992.38;7708227;32;37787;-75
2022/04/23 21:12:12;;;;;;;22.77;14.50;;;;;;;13.96;58.16;98984.12;7696067;32;39879;-75
2022/04/23 21:16:28;;;;;;;20.67;12.90;;;;;;;14.21;58.08;98967.00;7707379;32;39892;-75
2022/04/23 21:20:47;;;;;;;24.12;14.65;;;;;;;14.53;56.61;98978.72;7709694;32;37400;-77
2022/04/23 21:25:06;;;;;;;21.75;14.73;;;;;;;14.73;56.51;98984.75;7709395;32;37821;-76
2022/04/23 21:29:23;;;;;;;25.48;14.52;;;;;;;14.62;57.40;98981.53;7704282;32;39599;-77
2022/04/23 21:33:39;;;;;;;22.48;14.27;;;;;;;14.58;58.51;98983.25;7693526;32;40134;-76
2022/04/23 21:37:55;;;;;;;20.17;14.00;;;;;;;14.43;59.50;98995.47;7695869;32;37779;-76
2022/04/23 21:46:48;;;;;;;24.52;15.48;;;;;;;14.53;58.76;98986.94;7706505;32;40621;-77
2022/04/23 21:51:05;;;;;;;23.35;15.77;;;;;;;14.48;59.81;98989.84;7708697;32;40191;-76
2022/04/23 21:55:22;;;;;;;26.92;16.62;;;;;;;14.48;60.28;98981.59;7708767;32;38084;-74
2022/04/23 21:59:38;;;;;;;28.02;17.87;;;;;;;14.48;60.37;98983.56;7709123;32;36858;-75
2022/04/23 22:03:54;;;;;;;27.42;18.65;;;;;;;14.34;61.13;98975.44;7708747;32;39240;-76
2022/04/23 22:08:11;;;;;;;34.35;20.02;;;;;;;14.33;61.25;98977.38;7708536;32;39568;-75
2022/04/23 22:12:27;;;;;;;35.13;21.00;;;;;;;14.17;61.71;98974.22;7708725;32;37649;-75
2022/04/23 22:16:44;;;;;;;27.58;17.58;;;;;;;14.05;62.10;98983.03;7708780;32;37253;-75
2022/04/23 22:21:00;;;;;;;29.37;17.30;;;;;;;13.94;62.12;98970.72;7707837;32;39244;-75
2022/04/23 22:25:16;;;;;;;26.83;17.35;;;;;;;13.99;63.03;98967.06;7708490;32;39941;-75
2022/04/23 22:29:32;;;;;;;30.30;18.75;;;;;;;13.99;62.45;98969.81;7708019;32;38030;-76
2022/04/23 22:33:48;;;;;;;33.33;20.60;;;;;;;13.86;63.27;98966.81;7708442;32;37960;-75
2022/04/23 22:38:05;;;;;;;38.10;22.08;;;;;;;13.83;63.69;98958.41;7710508;32;39262;-75
2022/04/23 22:42:21;;;;;;;37.40;22.25;;;;;;;13.70;64.24;98957.37;7711863;32;40618;-75
2022/04/23 22:46:37;;;;;;;34.95;22.02;;;;;;;13.40;65.34;98972.63;7697897;32;38366;-75
2022/04/23 22:50:53;;;;;;;36.50;21.83;;;;;;;13.47;64.98;98954.66;7711907;32;37971;-76
2022/04/23 22:55:10;;;;;;;38.00;22.08;;;;;;;13.32;65.54;98946.81;7711906;32;39410;-75
2022/04/23 22:59:26;;;;;;;35.55;22.45;;;;;;;13.31;65.64;98948.75;7711120;32;40630;-76
2022/04/23 23:03:42;;;;;;;33.67;21.73;;;;;;;13.45;65.05;98929.53;7711461;32;37726;-76
2022/04/23 23:07:58;;;;;;;36.97;22.08;;;;;;;13.31;65.73;98946.00;7711747;32;37465;-75
2022/04/23 23:12:14;;;;;;;40.40;23.12;;;;;;;13.20;65.95;98936.38;7711191;32;40224;-75
2022/04/23 23:16:30;;;;;;;37.97;23.60;;;;;;;13.26;66.14;98940.63;7711386;32;40317;-75
2022/04/23 23:20:46;;;;;;;37.60;23.55;;;;;;;13.21;66.44;98945.41;7711894;32;38759;-75
2022/04/23 23:25:02;;;;;;;36.20;22.67;;;;;;;13.22;66.45;98941.53;7698298;32;37275;-75
2022/04/23 23:29:18;;;;;;;37.03;23.20;;;;;;;13.20;66.54;98930.09;7710915;32;40086;-74
2022/04/23 23:33:34;;;;;;;37.63;21.83;;;;;;;13.06;67.08;98922.75;7712252;32;40711;-75
2022/04/23 23:37:50;;;;;;;36.38;22.30;;;;;;;13.12;66.87;98928.91;7711918;32;37848;-75
2022/04/23 23:42:07;;;;;;;36.33;22.30;;;;;;;13.09;66.70;98929.50;7712001;32;37958;-75
2022/04/23 23:46:24;;;;;;;38.33;23.12;;;;;;;13.00;67.11;98915.75;7711936;32;40105;-75
2022/04/23 23:50:40;;;;;;;38.85;22.25;;;;;;;13.07;66.98;98916.16;7710662;32;39965;-76
2022/04/23 23:54:56;;;;;;;35.15;21.42;;;;;;;12.99;67.30;98918.81;7711795;32;37994;-75